createdAt,value
2018-09-06T00:02:53.341Z,10
2018-09-06T00:12:53.245Z,11
2018-09-06T00:29:20.007Z,9
2018-09-06T00:32:53.182Z,10
2018-09-06T00:42:53.226Z,8
2018-09-06T00:52:53.203Z,9
2018-09-06T01:02:53.155Z,12
2018-09-06T01:12:53.099Z,15
2018-09-06T01:22:53.111Z,10
2018-09-06T01:32:53.096Z,13
2018-09-06T01:42:53.039Z,9
2018-09-06T01:52:53.180Z,11
2018-09-06T02:02:53.041Z,9
2018-09-06T02:12:53.043Z,9
2018-09-06T02:22:53.112Z,10
2018-09-06T02:32:53.071Z,11
2018-09-06T02:42:53.174Z,11
2018-09-06T02:52:53.119Z,10
2018-09-06T03:02:53.112Z,10
2018-09-06T03:12:53.118Z,11
2018-09-06T03:22:53.160Z,12
2018-09-06T03:32:53.173Z,12
2018-09-06T03:42:53.180Z,14
2018-09-06T03:52:53.037Z,19
2018-09-06T04:02:53.130Z,14
2018-09-06T04:12:53.022Z,16
2018-09-06T04:22:53.084Z,18
2018-09-06T04:32:53.012Z,14
2018-09-06T04:42:53.031Z,18
2018-09-06T04:52:53.044Z,22
2018-09-06T05:02:53.064Z,17
2018-09-06T05:12:53.053Z,18
2018-09-06T05:22:53.027Z,17
2018-09-06T05:32:53.015Z,20
2018-09-06T05:42:54.123Z,20
2018-09-06T05:52:53.149Z,21
2018-09-06T06:02:53.120Z,20
2018-09-06T06:12:53.069Z,17
2018-09-06T06:22:53.096Z,18
2018-09-06T06:32:53.178Z,18
2018-09-06T06:42:54.217Z,20
2018-09-06T06:52:53.047Z,19
2018-09-06T07:02:53.079Z,20
2018-09-06T07:12:53.064Z,23
2018-09-06T07:22:53.139Z,17
2018-09-06T07:32:53.169Z,14
2018-09-06T07:42:53.149Z,15
2018-09-06T07:52:53.138Z,13
2018-09-06T08:02:53.086Z,14
2018-09-06T08:12:53.103Z,14
2018-09-06T08:22:53.116Z,14
2018-09-06T08:32:53.505Z,17
2018-09-06T08:42:53.140Z,18
2018-09-06T08:52:53.097Z,16
2018-09-06T09:02:53.223Z,16
2018-09-06T09:12:53.139Z,18
2018-09-06T09:22:53.131Z,17
2018-09-06T09:32:53.049Z,16
2018-09-06T09:42:53.172Z,18
2018-09-06T09:52:52.730Z,16
2018-09-06T10:02:53.167Z,19
2018-09-06T10:12:53.189Z,16
2018-09-06T10:22:53.171Z,17
2018-09-06T10:32:53.157Z,22
2018-09-06T10:42:53.055Z,18
2018-09-06T10:52:53.157Z,18
2018-09-06T11:02:53.217Z,18
2018-09-06T11:12:53.486Z,21
2018-09-06T11:22:54.545Z,22
2018-09-06T11:32:53.405Z,25
2018-09-06T11:42:54.025Z,24
2018-09-06T11:52:53.392Z,24
2018-09-06T12:02:53.274Z,22
2018-09-06T12:12:53.255Z,23
2018-09-06T12:22:53.207Z,23
2018-09-06T12:32:53.229Z,23
2018-09-06T12:42:53.091Z,21
2018-09-06T12:52:53.294Z,20
2018-09-06T13:02:53.379Z,19
2018-09-06T13:12:53.315Z,18
2018-09-06T13:22:53.281Z,15
2018-09-06T13:32:53.385Z,15
2018-09-06T13:42:54.685Z,17
2018-09-06T13:52:53.232Z,15
2018-09-06T14:02:53.249Z,14
2018-09-06T14:12:53.251Z,12
2018-09-06T14:22:53.911Z,16
2018-09-06T14:32:53.532Z,18
2018-09-06T14:42:53.107Z,19
2018-09-06T14:52:53.161Z,21
2018-09-06T15:02:53.183Z,27
2018-09-06T15:12:53.661Z,29
2018-09-06T15:22:53.454Z,35
2018-09-06T15:32:53.331Z,40
2018-09-06T15:42:53.224Z,42
2018-09-06T15:52:53.119Z,41
2018-09-06T16:02:53.364Z,44
2018-09-06T16:12:53.565Z,45
2018-09-06T16:22:53.370Z,46
2018-09-06T16:32:53.124Z,57
2018-09-06T16:42:53.374Z,52
2018-09-06T16:52:53.289Z,53
2018-09-06T17:02:53.336Z,64
2018-09-06T17:12:53.141Z,56
2018-09-06T17:22:53.139Z,58
2018-09-06T17:32:53.515Z,57
2018-09-06T17:42:53.139Z,58
2018-09-06T17:52:53.511Z,66
2018-09-06T18:02:53.233Z,61
2018-09-06T18:12:53.083Z,68
2018-09-06T18:22:53.218Z,64
2018-09-06T18:32:53.187Z,66
2018-09-06T18:42:53.338Z,75
2018-09-06T18:52:53.338Z,72
2018-09-06T19:02:53.218Z,81
2018-09-06T19:12:53.266Z,84
2018-09-06T19:22:53.196Z,82
2018-09-06T19:32:53.858Z,75
2018-09-06T19:42:53.285Z,72
2018-09-06T19:52:53.341Z,64
2018-09-06T20:02:53.257Z,63
2018-09-06T20:12:53.753Z,57
2018-09-06T20:22:53.358Z,44
2018-09-06T20:32:53.186Z,34
2018-09-06T20:42:53.204Z,27
2018-09-06T20:52:53.208Z,23
2018-09-06T21:02:53.253Z,20
2018-09-06T21:12:53.276Z,20
2018-09-06T21:22:53.293Z,22
2018-09-06T21:32:53.329Z,18
2018-09-06T21:42:53.700Z,14
2018-09-06T21:52:53.187Z,13
2018-09-06T22:02:53.233Z,13
2018-09-06T22:12:54.597Z,13
2018-09-06T22:22:55.334Z,11
2018-09-06T22:32:56.942Z,10
2018-09-06T22:42:58.855Z,9
2018-09-06T22:52:54.194Z,8
2018-09-06T23:02:53.296Z,9
2018-09-06T23:12:53.328Z,9
2018-09-06T23:22:56.340Z,12
2018-09-06T23:32:53.238Z,10
2018-09-06T23:42:54.251Z,11
2018-09-06T23:52:53.278Z,10
